Time;durP1;ratioP1;P1;durP2;ratioP2;P2;SDS_P1;SDS_P2;PMS_P1;PMS_P2;Temp;Humidity;BMP_temperature;BMP_pressure;BME280_temperature;BME280_humidity;BME280_pressure;Samples;Min_cycle;Max_cycle;Signal;HPM_P1;HPM_P2
2023/07/14 00:02:36;;;;;;;2.28;1.38;;;20.30;78.10;;;;;;5037855;28;20071;-72
2023/07/14 00:05:32;;;;;;;3.63;2.20;;;20.30;78.40;;;;;;5041007;28;20064;-72
2023/07/14 00:08:18;;;;;;;2.70;1.75;;;20.20;78.40;;;;;;5059802;28;20477;-72
2023/07/14 00:11:11;;;;;;;2.85;1.45;;;20.10;78.60;;;;;;5064852;28;20098;-71
2023/07/14 00:13:57;;;;;;;3.65;1.98;;;20.10;78.90;;;;;;5036463;28;20038;-72
2023/07/14 00:16:44;;;;;;;2.25;1.50;;;20.10;79.00;;;;;;5037046;28;20410;-72
2023/07/14 00:19:30;;;;;;;2.33;1.48;;;20.10;79.10;;;;;;5033019;28;20056;-72
2023/07/14 00:22:16;;;;;;;3.78;1.75;;;20.00;79.30;;;;;;5064414;28;20041;-72
2023/07/14 00:25:04;;;;;;;3.40;1.98;;;20.00;79.40;;;;;;5023253;28;20322;-72
2023/07/14 00:27:53;;;;;;;1.70;1.38;;;19.90;79.50;;;;;;5026292;28;20025;-72
2023/07/14 00:30:39;;;;;;;4.22;1.80;;;19.90;79.60;;;;;;5054423;28;20037;-73
2023/07/14 00:33:25;;;;;;;2.13;1.33;;;19.90;79.60;;;;;;5047288;28;20069;-72
2023/07/14 00:36:12;;;;;;;2.45;1.38;;;19.80;79.80;;;;;;5044030;28;20052;-72
2023/07/14 00:38:58;;;;;;;2.97;1.65;;;19.80;80.00;;;;;;5053514;28;20064;-71
2023/07/14 00:41:44;;;;;;;2.67;1.80;;;19.80;80.00;;;;;;5049603;28;20029;-71
2023/07/14 00:44:30;;;;;;;2.53;1.70;;;19.70;80.10;;;;;;5054211;28;20067;-71
2023/07/14 00:47:28;;;;;;;3.55;1.67;;;19.70;80.30;;;;;;5057166;28;20033;-71
2023/07/14 00:50:24;;;;;;;1.80;1.33;;;19.70;80.50;;;;;;5055535;28;20454;-72
2023/07/14 00:53:39;;;;;;;2.22;1.73;;;19.70;80.70;;;;;;5049550;28;20087;-70
2023/07/14 00:56:39;;;;;;;3.55;1.60;;;19.70;80.70;;;;;;5050893;28;20367;-70
2023/07/14 00:59:33;;;;;;;2.80;1.73;;;19.60;80.70;;;;;;5035015;28;20066;-70
2023/07/14 01:02:19;;;;;;;2.83;1.70;;;19.60;80.90;;;;;;5050954;28;21021;-69
2023/07/14 01:05:07;;;;;;;3.85;1.92;;;19.60;80.90;;;;;;5055715;28;20029;-71
2023/07/14 01:07:54;;;;;;;2.88;1.63;;;19.60;81.20;;;;;;5050146;28;20033;-70
2023/07/14 01:10:40;;;;;;;3.75;1.95;;;19.50;81.30;;;;;;5049695;28;20025;-70
2023/07/14 01:13:29;;;;;;;2.42;1.90;;;19.50;81.40;;;;;;5048224;28;20123;-70
2023/07/14 01:16:16;;;;;;;5.55;1.95;;;19.50;81.60;;;;;;5034457;28;20469;-70
2023/07/14 01:19:06;;;;;;;3.55;2.53;;;19.50;81.80;;;;;;5050466;28;20044;-70
2023/07/14 01:22:06;;;;;;;2.88;1.92;;;19.40;81.80;;;;;;5054211;28;20389;-70
2023/07/14 01:25:07;;;;;;;4.80;1.75;;;19.40;82.10;;;;;;5049339;28;20693;-70
2023/07/14 01:27:53;;;;;;;3.97;2.20;;;19.40;82.10;;;;;;5046748;28;20036;-70
2023/07/14 01:30:40;;;;;;;3.58;2.30;;;19.30;82.20;;;;;;5047897;28;20036;-71
2023/07/14 01:33:26;;;;;;;5.43;2.92;;;19.30;82.30;;;;;;5051719;28;20052;-70
2023/07/14 01:36:13;;;;;;;4.07;2.40;;;19.30;82.40;;;;;;5048932;28;20568;-69
2023/07/14 01:39:00;;;;;;;3.40;2.28;;;19.30;82.60;;;;;;5049660;28;20053;-70
2023/07/14 01:41:46;;;;;;;5.30;2.33;;;19.20;82.80;;;;;;5048082;28;20033;-71
2023/07/14 01:44:33;;;;;;;7.57;2.92;;;19.30;83.00;;;;;;5067025;28;20532;-69
2023/07/14 01:47:20;;;;;;;3.40;2.20;;;19.30;83.10;;;;;;5062850;28;20020;-70
2023/07/14 01:50:18;;;;;;;3.05;2.10;;;19.30;83.20;;;;;;5049887;28;20099;-70
2023/07/14 01:53:10;;;;;;;3.13;2.10;;;19.30;83.60;;;;;;5058040;28;20064;-70
2023/07/14 01:56:00;;;;;;;3.78;2.10;;;19.30;83.60;;;;;;5053565;28;20108;-72
2023/07/14 01:59:15;;;;;;;3.83;1.80;;;19.30;83.80;;;;;;5048652;28;20059;-74
2023/07/14 02:02:03;;;;;;;2.47;1.77;;;19.20;83.80;;;;;;5055070;28;20048;-69
2023/07/14 02:04:50;;;;;;;3.75;2.20;;;19.30;84.40;;;;;;5049414;28;20032;-70
2023/07/14 02:07:36;;;;;;;3.97;2.13;;;19.30;84.50;;;;;;5048972;28;20045;-71
2023/07/14 02:10:22;;;;;;;3.88;2.53;;;19.30;84.10;;;;;;5061685;28;20545;-74
2023/07/14 02:13:11;;;;;;;4.80;2.35;;;19.30;84.80;;;;;;5060302;28;20041;-72
2023/07/14 02:15:57;;;;;;;3.15;2.35;;;19.30;85.00;;;;;;5049480;28;20029;-70
2023/07/14 02:18:45;;;;;;;6.63;3.35;;;19.30;84.70;;;;;;5051229;28;20691;-70
2023/07/14 02:21:32;;;;;;;7.93;4.25;;;19.30;84.80;;;;;;5049076;28;20029;-70
2023/07/14 02:24:22;;;;;;;6.80;3.58;;;19.20;84.80;;;;;;5047855;28;20152;-68
2023/07/14 02:27:11;;;;;;;6.97;3.40;;;19.20;85.10;;;;;;5048280;28;20033;-66
2023/07/14 02:30:01;;;;;;;4.32;3.20;;;19.20;85.20;;;;;;5063548;28;20470;-69
2023/07/14 02:32:55;;;;;;;6.78;3.40;;;19.20;85.30;;;;;;5061738;28;20040;-71
2023/07/14 02:36:00;;;;;;;6.10;3.58;;;19.20;85.50;;;;;;5063108;28;20040;-71
2023/07/14 02:38:46;;;;;;;4.50;3.08;;;19.20;85.60;;;;;;5049080;28;20040;-70
2023/07/14 02:41:40;;;;;;;5.60;2.60;;;19.20;85.50;;;;;;5055047;28;20025;-71
2023/07/14 02:44:35;;;;;;;4.20;2.83;;;19.20;85.80;;;;;;5056129;28;20052;-72
2023/07/14 02:47:22;;;;;;;5.18;2.75;;;19.10;85.90;;;;;;5052903;28;20069;-72
2023/07/14 02:50:08;;;;;;;3.47;2.47;;;19.10;86.00;;;;;;5051290;28;20247;-72
2023/07/14 02:52:54;;;;;;;4.47;3.00;;;19.10;86.20;;;;;;5051673;28;20618;-71
2023/07/14 02:55:40;;;;;;;4.28;2.55;;;19.10;86.30;;;;;;5051600;28;20490;-71
2023/07/14 02:58:26;;;;;;;4.03;3.00;;;19.10;86.50;;;;;;5052227;28;20214;-71
2023/07/14 03:01:12;;;;;;;6.22;2.63;;;19.00;86.60;;;;;;5054998;28;20501;-72
2023/07/14 03:03:58;;;;;;;4.30;2.45;;;19.10;86.70;;;;;;5059469;28;20051;-72
2023/07/14 03:06:44;;;;;;;4.45;2.50;;;19.10;86.90;;;;;;5071935;28;20548;-71
2023/07/14 03:09:30;;;;;;;5.78;3.47;;;19.10;87.00;;;;;;5061878;28;20044;-71
2023/07/14 03:12:17;;;;;;;4.35;2.30;;;19.10;87.20;;;;;;5051007;28;20036;-71
2023/07/14 03:15:05;;;;;;;5.38;2.60;;;19.00;87.30;;;;;;5060225;28;20094;-70
2023/07/14 03:17:51;;;;;;;6.40;3.35;;;19.10;87.50;;;;;;5051764;28;20045;-71
2023/07/14 03:20:37;;;;;;;6.18;2.50;;;19.10;87.60;;;;;;5059912;28;20081;-70
2023/07/14 03:23:24;;;;;;;3.83;2.47;;;19.10;87.70;;;;;;5056698;28;20047;-70
2023/07/14 03:26:10;;;;;;;3.95;2.58;;;19.20;87.80;;;;;;5040738;28;20039;-70
2023/07/14 03:28:56;;;;;;;4.78;2.53;;;19.20;87.90;;;;;;5054968;28;20572;-69
2023/07/14 03:31:42;;;;;;;5.22;2.38;;;19.20;88.00;;;;;;5050950;28;20032;-70
2023/07/14 03:34:28;;;;;;;3.88;2.72;;;19.20;88.00;;;;;;5063003;28;20039;-70
2023/07/14 03:37:13;;;;;;;5.40;2.30;;;19.30;88.10;;;;;;5056875;28;20060;-71
2023/07/14 03:39:59;;;;;;;2.80;2.15;;;19.30;88.10;;;;;;5051978;28;20029;-71
2023/07/14 03:42:45;;;;;;;4.35;2.60;;;19.30;88.20;;;;;;5052527;28;20117;-69
2023/07/14 03:45:32;;;;;;;4.70;2.83;;;19.30;88.30;;;;;;5065862;28;20036;-70
2023/07/14 03:48:18;;;;;;;3.72;2.28;;;19.40;88.40;;;;;;5052583;28;20029;-69
2023/07/14 03:51:05;;;;;;;2.85;2.25;;;19.40;88.40;;;;;;5069693;28;20042;-69
2023/07/14 03:53:51;;;;;;;5.07;2.70;;;19.50;88.60;;;;;;5056227;28;20044;-68
2023/07/14 03:56:37;;;;;;;3.40;2.33;;;19.40;88.60;;;;;;5056968;28;20076;-69
2023/07/14 03:59:23;;;;;;;7.13;2.40;;;19.40;88.70;;;;;;5068035;28;20036;-70
2023/07/14 04:02:09;;;;;;;3.65;2.60;;;19.50;88.80;;;;;;5061455;28;20059;-68
2023/07/14 04:04:55;;;;;;;4.85;2.35;;;19.50;88.90;;;;;;5050208;28;20078;-69
2023/07/14 04:07:43;;;;;;;4.90;2.72;;;19.50;88.90;;;;;;5059542;28;20090;-70
2023/07/14 04:10:29;;;;;;;3.22;2.30;;;19.50;88.90;;;;;;5051681;28;20067;-69
2023/07/14 04:13:14;;;;;;;3.95;2.42;;;19.60;89.00;;;;;;5051561;28;20037;-69
2023/07/14 04:16:00;;;;;;;4.07;2.30;;;19.60;89.00;;;;;;5049870;28;20063;-69
2023/07/14 04:18:46;;;;;;;5.30;2.40;;;19.60;88.90;;;;;;5050355;28;20045;-69
2023/07/14 04:21:33;;;;;;;3.42;2.45;;;19.70;88.90;;;;;;5055149;28;20066;-69
2023/07/14 04:24:19;;;;;;;3.65;2.50;;;19.70;88.90;;;;;;5061501;28;20078;-69
2023/07/14 04:27:04;;;;;;;5.18;2.83;;;19.70;88.80;;;;;;5051946;28;20037;-73
2023/07/14 04:29:50;;;;;;;4.47;2.75;;;19.70;88.90;;;;;;5050628;28;20041;-71
2023/07/14 04:32:36;;;;;;;3.63;2.30;;;19.70;89.00;;;;;;5050209;28;20025;-72
2023/07/14 04:35:22;;;;;;;5.53;2.30;;;19.80;89.20;;;;;;5049313;28;20064;-71
2023/07/14 04:38:08;;;;;;;3.58;2.67;;;19.80;89.10;;;;;;5049015;28;20460;-73
2023/07/14 04:40:54;;;;;;;2.83;2.22;;;19.90;89.20;;;;;;5053359;28;20489;-73
2023/07/14 04:43:40;;;;;;;5.15;3.15;;;19.90;89.20;;;;;;5063968;28;20548;-73
2023/07/14 04:46:26;;;;;;;4.85;2.47;;;20.00;89.10;;;;;;5050502;28;20025;-74
2023/07/14 04:49:14;;;;;;;3.75;2.22;;;20.00;89.20;;;;;;5049166;28;20036;-74
2023/07/14 04:52:01;;;;;;;4.43;2.55;;;20.00;89.20;;;;;;5048419;28;20040;-74
2023/07/14 04:54:47;;;;;;;4.53;3.00;;;20.00;89.30;;;;;;5060584;28;20470;-74
2023/07/14 04:57:33;;;;;;;2.83;2.30;;;20.10;89.10;;;;;;5048723;28;20041;-74
2023/07/14 05:00:20;;;;;;;4.10;2.28;;;20.10;89.20;;;;;;5049344;28;20021;-74
2023/07/14 05:03:07;;;;;;;4.50;2.70;;;20.10;89.10;;;;;;5047815;28;20596;-73
2023/07/14 05:05:53;;;;;;;4.13;2.38;;;20.20;89.50;;;;;;5057153;28;20028;-73
2023/07/14 05:08:39;;;;;;;3.95;2.35;;;20.20;89.00;;;;;;5056978;28;20397;-73
2023/07/14 05:11:25;;;;;;;3.92;2.40;;;20.20;89.00;;;;;;5039681;28;20036;-73
2023/07/14 05:14:11;;;;;;;6.80;2.67;;;20.30;88.90;;;;;;5064131;28;20040;-73
2023/07/14 05:16:57;;;;;;;4.30;2.90;;;20.30;89.00;;;;;;5055282;28;20131;-74
2023/07/14 05:19:43;;;;;;;4.68;2.85;;;20.30;89.00;;;;;;5055321;28;20139;-72
2023/07/14 05:22:29;;;;;;;4.28;2.38;;;20.40;89.00;;;;;;5055029;28;20040;-72
2023/07/14 05:25:16;;;;;;;4.57;2.88;;;20.40;89.00;;;;;;5061715;28;20056;-73
2023/07/14 05:28:02;;;;;;;6.45;2.70;;;20.40;88.90;;;;;;5054423;28;20032;-72
2023/07/14 05:30:49;;;;;;;3.75;2.67;;;20.40;89.00;;;;;;5061623;28;20124;-73
2023/07/14 05:33:35;;;;;;;4.07;2.58;;;20.50;89.00;;;;;;5056772;28;20044;-73
2023/07/14 05:36:21;;;;;;;5.00;2.90;;;20.50;88.90;;;;;;5054863;28;20131;-73
2023/07/14 05:39:07;;;;;;;4.63;2.97;;;20.50;88.70;;;;;;5047268;28;20761;-74
2023/07/14 05:41:53;;;;;;;4.47;3.20;;;20.50;88.70;;;;;;5062345;28;20036;-73
2023/07/14 05:44:39;;;;;;;4.35;2.67;;;20.50;88.70;;;;;;5050178;28;20033;-74
2023/07/14 05:47:25;;;;;;;3.58;2.30;;;20.50;88.70;;;;;;5049393;28;20108;-73
2023/07/14 05:50:11;;;;;;;5.45;2.63;;;20.60;88.60;;;;;;5051147;28;20037;-72
2023/07/14 05:52:57;;;;;;;5.32;2.53;;;20.60;88.70;;;;;;5053245;28;20090;-72
2023/07/14 05:55:44;;;;;;;4.53;2.53;;;20.60;88.40;;;;;;5048274;28;20041;-73
2023/07/14 05:58:30;;;;;;;2.90;2.03;;;20.70;88.30;;;;;;5054004;28;20128;-72
2023/07/14 06:01:15;;;;;;;5.57;3.28;;;20.70;88.60;;;;;;5048564;28;20033;-75
2023/07/14 06:04:02;;;;;;;5.20;3.10;;;20.70;88.50;;;;;;5049723;28;20033;-73
2023/07/14 06:06:47;;;;;;;5.05;2.38;;;20.80;88.30;;;;;;5048160;28;20033;-73
2023/07/14 06:09:35;;;;;;;4.82;2.88;;;20.90;88.30;;;;;;5047413;28;20037;-73
2023/07/14 06:12:21;;;;;;;5.18;2.50;;;20.90;88.70;;;;;;5047971;28;20048;-71
2023/07/14 06:15:07;;;;;;;3.80;2.08;;;20.90;88.20;;;;;;5052725;28;20098;-72
2023/07/14 06:17:54;;;;;;;3.83;2.88;;;21.00;88.20;;;;;;5055644;28;20091;-72
2023/07/14 06:20:39;;;;;;;4.65;2.70;;;21.00;87.90;;;;;;5053078;28;20060;-71
2023/07/14 06:23:27;;;;;;;5.82;2.85;;;21.10;88.00;;;;;;5060727;28;20033;-73
2023/07/14 06:26:13;;;;;;;3.30;2.38;;;21.20;87.70;;;;;;5067393;28;20029;-73
2023/07/14 06:28:59;;;;;;;3.97;2.42;;;21.20;87.60;;;;;;5051887;28;20036;-73
2023/07/14 06:31:45;;;;;;;5.65;2.60;;;21.30;87.60;;;;;;5051235;28;20148;-73
2023/07/14 06:34:31;;;;;;;4.45;2.13;;;21.30;87.50;;;;;;5051552;28;20497;-72
2023/07/14 06:37:17;;;;;;;4.50;2.30;;;21.30;87.80;;;;;;5038219;28;20057;-73
2023/07/14 06:40:04;;;;;;;3.72;2.13;;;21.40;87.30;;;;;;5052167;28;20060;-73
2023/07/14 06:42:50;;;;;;;7.53;2.40;;;21.40;87.10;;;;;;5059313;28;20104;-72
2023/07/14 06:45:36;;;;;;;5.53;2.53;;;21.50;87.10;;;;;;5051921;28;20070;-73
2023/07/14 06:48:23;;;;;;;11.70;2.60;;;21.50;87.20;;;;;;5052725;28;20123;-73
2023/07/14 06:51:09;;;;;;;2.88;2.15;;;21.60;86.80;;;;;;5052575;28;20041;-73
2023/07/14 06:53:55;;;;;;;4.88;2.47;;;21.60;86.60;;;;;;5052676;28;20029;-73
2023/07/14 06:56:41;;;;;;;6.45;2.38;;;21.70;86.40;;;;;;5052311;28;20040;-73
2023/07/14 06:59:27;;;;;;;4.88;2.33;;;21.80;86.30;;;;;;5052977;28;20044;-73
2023/07/14 07:02:13;;;;;;;2.92;2.15;;;21.90;86.20;;;;;;5052459;28;20451;-74
2023/07/14 07:04:59;;;;;;;3.85;1.95;;;21.90;85.70;;;;;;5053034;28;20037;-74
2023/07/14 07:07:45;;;;;;;4.43;2.47;;;21.90;85.50;;;;;;5051473;28;20051;-75
2023/07/14 07:10:34;;;;;;;3.85;2.53;;;22.00;85.00;;;;;;5037428;28;20032;-75
2023/07/14 07:13:20;;;;;;;7.47;2.47;;;22.00;85.10;;;;;;5052386;28;20170;-76
2023/07/14 07:16:06;;;;;;;3.25;2.20;;;22.10;84.80;;;;;;5050497;28;20082;-73
2023/07/14 07:18:52;;;;;;;3.42;2.20;;;22.20;84.80;;;;;;5051578;28;20068;-70
2023/07/14 07:21:39;;;;;;;5.95;2.22;;;22.20;84.20;;;;;;5052756;28;20118;-71
2023/07/14 07:24:25;;;;;;;3.38;2.40;;;22.20;83.60;;;;;;5062170;28;20048;-71
2023/07/14 07:27:11;;;;;;;3.03;1.80;;;22.30;84.00;;;;;;5041142;28;20474;-71
2023/07/14 07:29:57;;;;;;;4.53;1.88;;;22.30;83.60;;;;;;5064724;28;20461;-72
2023/07/14 07:32:46;;;;;;;3.65;2.17;;;22.30;83.20;;;;;;5056213;28;20025;-72
2023/07/14 07:35:35;;;;;;;3.58;2.17;;;22.40;83.30;;;;;;5051748;28;20047;-72
2023/07/14 07:38:24;;;;;;;3.42;2.00;;;22.40;83.10;;;;;;5054727;28;20048;-72
2023/07/14 07:41:12;;;;;;;5.20;2.45;;;22.50;83.20;;;;;;5051381;28;20032;-72
2023/07/14 07:43:58;;;;;;;3.13;1.60;;;22.50;82.50;;;;;;5052781;28;20498;-74
2023/07/14 07:46:44;;;;;;;3.40;2.00;;;22.60;82.30;;;;;;5054294;28;20448;-73
2023/07/14 07:49:30;;;;;;;5.72;2.10;;;22.60;81.80;;;;;;5062919;28;20036;-73
2023/07/14 07:52:16;;;;;;;5.32;1.92;;;22.70;81.30;;;;;;5050472;28;20121;-74
2023/07/14 07:55:03;;;;;;;3.53;1.98;;;22.70;79.90;;;;;;5062923;28;20033;-72
2023/07/14 07:57:49;;;;;;;4.32;1.90;;;22.70;80.60;;;;;;5052273;28;20228;-73
2023/07/14 08:00:36;;;;;;;3.65;1.65;;;22.70;80.70;;;;;;5058760;28;20087;-73
2023/07/14 08:03:22;;;;;;;3.97;2.38;;;22.70;80.80;;;;;;5052857;28;20040;-72
2023/07/14 08:06:08;;;;;;;3.50;1.67;;;22.80;80.40;;;;;;5049927;28;20116;-72
2023/07/14 08:08:54;;;;;;;2.85;1.30;;;22.80;79.10;;;;;;5058907;28;20063;-71
2023/07/14 08:11:40;;;;;;;3.45;1.85;;;22.80;78.30;;;;;;5049514;28;20478;-71
2023/07/14 08:14:26;;;;;;;3.95;1.60;;;22.80;78.60;;;;;;5051802;28;20099;-71
2023/07/14 08:17:12;;;;;;;2.88;1.77;;;22.90;78.70;;;;;;5051691;28;20033;-72
2023/07/14 08:19:59;;;;;;;3.15;1.40;;;22.90;78.60;;;;;;5065398;28;20040;-72
2023/07/14 08:22:45;;;;;;;2.10;1.40;;;23.00;79.10;;;;;;5057686;28;20489;-72
2023/07/14 08:25:32;;;;;;;5.53;1.42;;;23.10;78.40;;;;;;5050007;28;20120;-72
2023/07/14 08:28:18;;;;;;;3.85;2.00;;;23.10;78.30;;;;;;5055910;28;20383;-73
2023/07/14 08:31:08;;;;;;;4.72;2.13;;;23.20;77.90;;;;;;5050577;28;20413;-72
2023/07/14 08:33:54;;;;;;;4.25;1.70;;;23.20;77.80;;;;;;5051965;28;20036;-72
2023/07/14 08:36:40;;;;;;;3.63;1.67;;;23.20;77.90;;;;;;5049732;28;20270;-74
2023/07/14 08:39:26;;;;;;;4.72;1.65;;;23.30;77.00;;;;;;5057183;28;20044;-74
2023/07/14 08:42:40;;;;;;;5.38;1.90;;;23.30;77.20;;;;;;5064505;28;20119;-74
2023/07/14 08:46:03;;;;;;;2.97;1.40;;;23.40;76.90;;;;;;5050267;28;20036;-74
2023/07/14 08:49:03;;;;;;;3.33;1.60;;;23.40;76.70;;;;;;5050917;28;20033;-74
2023/07/14 08:52:03;;;;;;;6.05;1.98;;;23.50;76.90;;;;;;5066306;28;20032;-74
2023/07/14 08:55:00;;;;;;;5.65;1.67;;;23.50;74.60;;;;;;5068757;28;20408;-74
2023/07/14 08:57:53;;;;;;;6.80;2.08;;;23.50;74.40;;;;;;5049953;28;20067;-74
2023/07/14 09:00:59;;;;;;;4.50;1.52;;;23.60;74.50;;;;;;5059734;28;20029;-74
2023/07/14 09:03:53;;;;;;;5.10;2.03;;;23.60;74.50;;;;;;5048427;28;20036;-74
2023/07/14 09:06:39;;;;;;;1.65;1.35;;;23.70;75.00;;;;;;5048936;28;20087;-75
2023/07/14 09:09:33;;;;;;;3.03;1.40;;;23.80;75.30;;;;;;5050350;28;20040;-75
2023/07/14 09:12:19;;;;;;;1.95;1.38;;;23.90;74.90;;;;;;5060667;28;20033;-74
2023/07/14 09:15:16;;;;;;;3.90;1.50;;;24.00;74.60;;;;;;5061868;28;20032;-74
2023/07/14 09:18:31;;;;;;;2.35;1.77;;;24.00;74.10;;;;;;5070154;28;20056;-69
2023/07/14 09:21:29;;;;;;;2.47;1.50;;;24.20;74.70;;;;;;5059100;28;20036;-70
2023/07/14 09:24:45;;;;;;;3.30;1.73;;;24.20;72.90;;;;;;5067798;28;20033;-69
2023/07/14 09:27:32;;;;;;;4.40;2.13;;;24.20;73.70;;;;;;5039730;28;20025;-69
2023/07/14 09:30:23;;;;;;;2.50;1.50;;;24.30;73.50;;;;;;5057652;28;20420;-69
2023/07/14 09:33:14;;;;;;;2.55;1.77;;;24.40;72.80;;;;;;5054270;28;20044;-69
2023/07/14 09:36:00;;;;;;;7.35;1.80;;;24.60;73.20;;;;;;5060912;28;20109;-68
2023/07/14 09:38:54;;;;;;;4.05;1.30;;;24.70;73.00;;;;;;5049783;28;20049;-69
2023/07/14 09:41:40;;;;;;;2.20;1.35;;;24.80;72.50;;;;;;5054336;28;20144;-69
2023/07/14 09:44:26;;;;;;;2.47;1.38;;;24.80;70.50;;;;;;5050365;28;20029;-68
2023/07/14 09:47:13;;;;;;;2.97;1.50;;;24.90;69.80;;;;;;5040084;28;20032;-67
2023/07/14 09:49:59;;;;;;;2.33;1.70;;;24.90;69.30;;;;;;5049487;28;20040;-70
2023/07/14 09:52:52;;;;;;;2.00;1.42;;;25.00;70.40;;;;;;5048752;28;20033;-68
2023/07/14 09:55:53;;;;;;;2.58;1.38;;;25.00;70.20;;;;;;5049078;28;20036;-68
2023/07/14 09:58:52;;;;;;;3.40;1.55;;;25.10;70.40;;;;;;5049020;28;20486;-69
2023/07/14 10:01:50;;;;;;;2.03;1.30;;;25.30;70.60;;;;;;5049373;28;20040;-69
2023/07/14 10:04:36;;;;;;;2.13;1.45;;;25.30;69.40;;;;;;5052942;28;21264;-69
2023/07/14 10:07:25;;;;;;;3.25;1.73;;;25.40;68.20;;;;;;5048921;28;20045;-69
2023/07/14 10:10:15;;;;;;;3.38;1.92;;;25.40;66.60;;;;;;5048479;28;20033;-70
2023/07/14 10:13:21;;;;;;;3.55;1.83;;;25.40;68.30;;;;;;5045279;28;20036;-70
2023/07/14 10:16:15;;;;;;;2.25;1.30;;;25.50;67.90;;;;;;5048475;28;20552;-69
2023/07/14 10:19:11;;;;;;;4.68;1.67;;;25.60;66.40;;;;;;5047394;28;20478;-69
2023/07/14 10:22:04;;;;;;;2.72;1.52;;;25.70;67.20;;;;;;5047969;28;20032;-69
2023/07/14 10:24:58;;;;;;;2.55;1.50;;;25.80;67.10;;;;;;5062130;28;20036;-70
2023/07/14 10:28:11;;;;;;;4.10;1.83;;;25.80;67.40;;;;;;5054849;28;20509;-69
2023/07/14 10:31:20;;;;;;;2.88;1.73;;;25.90;65.90;;;;;;5054503;28;20512;-69
2023/07/14 10:34:17;;;;;;;3.22;1.80;;;25.90;67.10;;;;;;5046683;28;20127;-69
2023/07/14 10:37:17;;;;;;;2.85;1.67;;;26.10;66.30;;;;;;5046951;28;20045;-70
2023/07/14 10:40:14;;;;;;;2.08;1.30;;;26.10;66.80;;;;;;5049715;28;20049;-70
2023/07/14 10:43:06;;;;;;;1.67;1.30;;;26.20;66.00;;;;;;5047733;28;20071;-70
2023/07/14 10:45:59;;;;;;;3.58;2.25;;;26.30;66.00;;;;;;5046902;28;20028;-70
2023/07/14 10:48:55;;;;;;;2.50;1.63;;;26.30;65.50;;;;;;5046624;28;20051;-70
2023/07/14 10:52:03;;;;;;;2.58;1.70;;;26.30;65.60;;;;;;5053267;28;20401;-70
2023/07/14 10:54:57;;;;;;;2.80;1.65;;;26.30;66.20;;;;;;5062589;28;20041;-69
2023/07/14 10:57:54;;;;;;;5.45;1.73;;;26.30;65.30;;;;;;5049433;28;20397;-70
2023/07/14 11:00:50;;;;;;;2.03;1.42;;;26.30;65.10;;;;;;5049226;28;20028;-69
2023/07/14 11:03:47;;;;;;;4.18;1.60;;;26.20;65.40;;;;;;5053586;28;20047;-69
2023/07/14 11:06:34;;;;;;;3.13;1.40;;;26.30;65.60;;;;;;5052314;28;20039;-69
2023/07/14 11:09:20;;;;;;;5.70;1.90;;;26.30;65.40;;;;;;5049757;28;20116;-69
2023/07/14 11:12:31;;;;;;;2.45;1.55;;;26.40;65.10;;;;;;5049503;28;20044;-68
2023/07/14 11:15:26;;;;;;;2.90;1.70;;;26.40;65.20;;;;;;5060416;28;20098;-69
2023/07/14 11:18:31;;;;;;;1.75;1.20;;;26.40;65.10;;;;;;5051001;28;20045;-69
2023/07/14 11:21:21;;;;;;;;;;;26.40;65.10;;;;;;5057945;28;20482;-69
2023/07/14 11:24:13;;;;;;;3.00;1.38;;;26.50;65.30;;;;;;5052503;28;19932;-69
2023/07/14 11:27:32;;;;;;;3.65;2.05;;;26.50;64.30;;;;;;5050968;28;20025;-68
2023/07/14 11:30:25;;;;;;;3.90;1.15;;;26.60;64.00;;;;;;5065202;28;20020;-69
2023/07/14 11:33:32;;;;;;;3.30;1.83;;;26.60;63.70;;;;;;5056839;28;20040;-68
2023/07/14 11:36:26;;;;;;;3.28;1.80;;;26.70;64.20;;;;;;5057030;28;20340;-69
2023/07/14 11:39:24;;;;;;;2.15;1.50;;;26.70;64.10;;;;;;5056651;28;20044;-69
2023/07/14 11:42:25;;;;;;;2.47;1.73;;;26.70;63.60;;;;;;5050523;28;20045;-69
2023/07/14 11:45:20;;;;;;;3.83;1.55;;;26.70;63.10;;;;;;5064214;28;20119;-69
2023/07/14 11:48:24;;;;;;;3.20;1.45;;;26.70;62.30;;;;;;5049851;28;20033;-69
2023/07/14 11:51:14;;;;;;;3.83;1.92;;;26.60;61.80;;;;;;5049862;28;20493;-68
2023/07/14 11:54:16;;;;;;;6.40;2.30;;;26.60;62.00;;;;;;5053798;28;20126;-70
2023/07/14 11:57:07;;;;;;;2.47;1.90;;;26.50;62.40;;;;;;5053847;28;20036;-69
2023/07/14 11:59:59;;;;;;;3.47;1.92;;;26.50;61.20;;;;;;5061604;28;20040;-69
2023/07/14 12:02:57;;;;;;;3.95;2.10;;;26.60;62.20;;;;;;5054671;28;20072;-69
2023/07/14 12:05:43;;;;;;;3.40;2.22;;;26.70;61.80;;;;;;5069280;28;20130;-71
2023/07/14 12:08:39;;;;;;;2.97;1.77;;;26.70;61.40;;;;;;5049736;28;20108;-69
2023/07/14 12:11:28;;;;;;;3.13;1.83;;;26.80;61.70;;;;;;5054193;28;20040;-69
2023/07/14 12:14:26;;;;;;;2.83;1.80;;;26.90;61.10;;;;;;5057495;28;20041;-69
2023/07/14 12:17:37;;;;;;;3.92;1.77;;;27.00;60.90;;;;;;5055148;28;20056;-69
2023/07/14 12:20:30;;;;;;;2.92;1.67;;;26.90;59.00;;;;;;5048678;28;20045;-70
2023/07/14 12:23:26;;;;;;;3.10;1.90;;;26.90;59.20;;;;;;5051401;28;20454;-69
2023/07/14 12:26:17;;;;;;;1.85;1.50;;;26.90;59.60;;;;;;5050989;28;20037;-69
2023/07/14 12:29:14;;;;;;;2.75;2.00;;;26.90;59.70;;;;;;5050492;28;20033;-70
2023/07/14 12:32:02;;;;;;;4.38;2.13;;;27.00;59.70;;;;;;5049619;28;20086;-69
2023/07/14 12:34:48;;;;;;;2.83;1.90;;;27.20;60.90;;;;;;5049736;28;20143;-69
2023/07/14 12:37:34;;;;;;;4.30;2.08;;;27.30;60.40;;;;;;5049723;28;20052;-69
2023/07/14 12:40:23;;;;;;;3.35;1.77;;;27.40;59.80;;;;;;5069341;28;20512;-69
2023/07/14 12:43:23;;;;;;;3.75;2.15;;;27.50;59.70;;;;;;5058875;28;20484;-69
2023/07/14 12:46:30;;;;;;;3.53;2.05;;;27.60;59.70;;;;;;5047227;28;20052;-69
2023/07/14 12:49:25;;;;;;;5.03;2.13;;;27.50;59.70;;;;;;5057445;28;20409;-69
2023/07/14 12:52:41;;;;;;;3.65;1.85;;;27.50;59.30;;;;;;5055033;28;20103;-69
2023/07/14 12:55:30;;;;;;;4.53;1.90;;;27.40;59.30;;;;;;5053657;28;20511;-69
2023/07/14 12:58:24;;;;;;;2.85;2.00;;;27.50;58.40;;;;;;5052952;28;20053;-69
2023/07/14 13:01:09;;;;;;;3.20;1.70;;;27.50;58.30;;;;;;5051879;28;20036;-69
2023/07/14 13:03:55;;;;;;;6.57;1.90;;;27.60;58.00;;;;;;5049533;28;20025;-69
2023/07/14 13:06:44;;;;;;;3.97;2.28;;;27.70;57.50;;;;;;5049148;28;20087;-69
2023/07/14 13:09:30;;;;;;;3.47;1.85;;;27.70;57.20;;;;;;5045957;28;20047;-69
2023/07/14 13:12:16;;;;;;;5.57;2.10;;;27.60;57.00;;;;;;5055890;28;20052;-68
2023/07/14 13:15:03;;;;;;;4.03;2.17;;;27.50;56.30;;;;;;5048970;28;20037;-69
2023/07/14 13:17:50;;;;;;;3.47;1.85;;;27.50;57.30;;;;;;5050834;28;20055;-68
2023/07/14 13:20:40;;;;;;;3.45;2.10;;;27.40;57.50;;;;;;5068037;28;20462;-69
2023/07/14 13:23:29;;;;;;;3.15;2.03;;;27.40;58.00;;;;;;5054259;28;20037;-68
2023/07/14 13:26:21;;;;;;;4.60;2.28;;;27.50;57.70;;;;;;5047719;28;20041;-68
2023/07/14 13:29:14;;;;;;;2.28;1.75;;;27.80;58.20;;;;;;5047196;28;20110;-69
2023/07/14 13:32:14;;;;;;;3.58;2.13;;;28.00;58.40;;;;;;5057143;28;20490;-69
2023/07/14 13:35:05;;;;;;;4.10;2.63;;;28.30;56.20;;;;;;5048506;28;20036;-69
2023/07/14 13:38:00;;;;;;;3.55;2.40;;;28.30;57.90;;;;;;5050623;28;20437;-69
2023/07/14 13:40:50;;;;;;;;;;;28.30;57.80;;;;;;5046042;28;20458;-69
2023/07/14 13:43:36;;;;;;;5.68;2.22;;;28.20;58.20;;;;;;5047093;28;19959;-69
2023/07/14 13:46:25;;;;;;;6.15;2.05;;;28.10;56.30;;;;;;5048733;28;20086;-68
2023/07/14 13:49:11;;;;;;;4.13;2.10;;;28.00;56.20;;;;;;5049765;28;20029;-69
2023/07/14 13:51:57;;;;;;;3.38;2.28;;;27.90;55.40;;;;;;5051680;28;20032;-69
2023/07/14 13:54:53;;;;;;;5.35;2.28;;;27.90;55.20;;;;;;5059744;28;20029;-69
2023/07/14 13:57:39;;;;;;;3.97;2.33;;;28.00;55.50;;;;;;5050723;28;20065;-68
2023/07/14 14:00:25;;;;;;;5.95;2.53;;;28.00;54.40;;;;;;5048877;28;20040;-68
2023/07/14 14:03:11;;;;;;;3.35;2.00;;;28.10;55.00;;;;;;5051224;28;20033;-68
2023/07/14 14:05:58;;;;;;;3.97;2.25;;;28.30;55.20;;;;;;5061278;28;20149;-69
2023/07/14 14:08:44;;;;;;;3.47;2.28;;;28.50;55.40;;;;;;5050455;28;20040;-69
2023/07/14 14:11:30;;;;;;;2.33;1.83;;;28.70;55.10;;;;;;5048698;28;20072;-69
2023/07/14 14:14:16;;;;;;;4.93;2.30;;;28.80;55.40;;;;;;5047384;28;20045;-68
2023/07/14 14:17:03;;;;;;;4.85;2.53;;;28.90;55.00;;;;;;5052327;28;20032;-69
2023/07/14 14:19:49;;;;;;;7.28;2.25;;;28.80;55.50;;;;;;5051428;28;20108;-69
2023/07/14 14:22:35;;;;;;;3.95;2.05;;;28.90;55.90;;;;;;5051607;28;20424;-69
2023/07/14 14:25:27;;;;;;;6.57;2.63;;;29.00;54.90;;;;;;5050689;28;20112;-68
2023/07/14 14:28:12;;;;;;;3.75;2.50;;;28.90;54.30;;;;;;5057733;28;20036;-69
2023/07/14 14:31:00;;;;;;;3.53;2.25;;;29.00;54.00;;;;;;5047879;28;20032;-69
2023/07/14 14:33:46;;;;;;;3.55;2.30;;;29.10;54.10;;;;;;5056542;28;20106;-68
2023/07/14 14:36:32;;;;;;;4.32;2.33;;;29.10;54.80;;;;;;5050110;28;20087;-69
2023/07/14 14:39:21;;;;;;;3.53;2.28;;;29.10;54.10;;;;;;5066117;28;20386;-68
2023/07/14 14:42:14;;;;;;;3.22;2.47;;;29.20;54.80;;;;;;5056819;28;20486;-67
2023/07/14 14:45:00;;;;;;;3.63;2.00;;;29.30;55.10;;;;;;5057624;28;20048;-69
2023/07/14 14:47:47;;;;;;;3.17;1.55;;;29.50;53.90;;;;;;5069252;28;20060;-69